sensor_id;sensor_type;location;lat;lon;timestamp;pressure;altitude;pressure_sealevel;temperature;humidity
9110;BME280;4590;51.462;6.692;2023-02-20T00:00:24;102417.53;;;7.97;69.30
9110;BME280;4590;51.462;6.692;2023-02-20T00:02:49;102416.97;;;7.95;69.11
9110;BME280;4590;51.462;6.692;2023-02-20T00:05:15;102414.94;;;7.91;69.41
9110;BME280;4590;51.462;6.692;2023-02-20T00:07:41;102416.84;;;7.90;69.45
9110;BME280;4590;51.462;6.692;2023-02-20T00:10:07;102414.94;;;7.91;69.81
9110;BME280;4590;51.462;6.692;2023-02-20T00:12:32;102415.19;;;7.89;69.48
9110;BME280;4590;51.462;6.692;2023-02-20T00:14:57;102399.00;;;7.88;69.29
9110;BME280;4590;51.462;6.692;2023-02-20T00:17:23;102409.97;;;7.88;69.68
9110;BME280;4590;51.462;6.692;2023-02-20T00:19:48;102406.13;;;7.89;69.89
9110;BME280;4590;51.462;6.692;2023-02-20T00:22:13;102390.78;;;7.88;69.63
9110;BME280;4590;51.462;6.692;2023-02-20T00:24:38;102389.94;;;7.87;69.89
9110;BME280;4590;51.462;6.692;2023-02-20T00:27:04;102385.28;;;7.88;70.02
9110;BME280;4590;51.462;6.692;2023-02-20T00:29:29;102382.84;;;7.86;70.11
9110;BME280;4590;51.462;6.692;2023-02-20T00:31:56;102379.81;;;7.88;69.74
9110;BME280;4590;51.462;6.692;2023-02-20T00:34:23;102388.31;;;7.86;70.18
9110;BME280;4590;51.462;6.692;2023-02-20T00:36:49;102389.63;;;7.84;70.42
9110;BME280;4590;51.462;6.692;2023-02-20T00:39:14;102381.16;;;7.85;70.56
9110;BME280;4590;51.462;6.692;2023-02-20T00:41:40;102384.97;;;7.84;70.19
9110;BME280;4590;51.462;6.692;2023-02-20T00:44:05;102374.84;;;7.85;70.45
9110;BME280;4590;51.462;6.692;2023-02-20T00:46:30;102365.81;;;7.84;70.55
9110;BME280;4590;51.462;6.692;2023-02-20T00:48:56;102370.69;;;7.82;70.46
9110;BME280;4590;51.462;6.692;2023-02-20T00:51:21;102362.97;;;7.79;70.57
9110;BME280;4590;51.462;6.692;2023-02-20T00:53:46;102358.91;;;7.82;70.75
9110;BME280;4590;51.462;6.692;2023-02-20T00:56:12;102363.31;;;7.83;70.45
9110;BME280;4590;51.462;6.692;2023-02-20T00:58:37;102354.84;;;7.84;70.71
9110;BME280;4590;51.462;6.692;2023-02-20T01:01:02;102346.03;;;7.82;70.62
9110;BME280;4590;51.462;6.692;2023-02-20T01:03:28;102340.31;;;7.84;70.38
9110;BME280;4590;51.462;6.692;2023-02-20T01:05:53;102334.81;;;7.84;70.52
9110;BME280;4590;51.462;6.692;2023-02-20T01:08:18;102320.28;;;7.83;70.81
9110;BME280;4590;51.462;6.692;2023-02-20T01:10:43;102324.59;;;7.79;70.94
9110;BME280;4590;51.462;6.692;2023-02-20T01:13:09;102323.53;;;7.80;70.97
9110;BME280;4590;51.462;6.692;2023-02-20T01:15:34;102320.53;;;7.82;70.89
9110;BME280;4590;51.462;6.692;2023-02-20T01:17:59;102313.16;;;7.82;70.98
9110;BME280;4590;51.462;6.692;2023-02-20T01:20:25;102312.56;;;7.80;71.12
9110;BME280;4590;51.462;6.692;2023-02-20T01:22:50;102307.41;;;7.84;70.92
9110;BME280;4590;51.462;6.692;2023-02-20T01:25:15;102298.13;;;7.85;70.85
9110;BME280;4590;51.462;6.692;2023-02-20T01:27:41;102294.31;;;7.86;71.30
9110;BME280;4590;51.462;6.692;2023-02-20T01:30:07;102310.47;;;7.87;71.31
9110;BME280;4590;51.462;6.692;2023-02-20T01:32:33;102308.56;;;7.88;71.20
9110;BME280;4590;51.462;6.692;2023-02-20T01:34:58;102316.53;;;7.89;71.18
9110;BME280;4590;51.462;6.692;2023-02-20T01:37:23;102320.34;;;7.88;71.30
9110;BME280;4590;51.462;6.692;2023-02-20T01:39:48;102319.53;;;7.88;71.35
9110;BME280;4590;51.462;6.692;2023-02-20T01:42:18;102317.88;;;7.87;70.77
9110;BME280;4590;51.462;6.692;2023-02-20T01:44:45;102322.00;;;7.89;71.34
9110;BME280;4590;51.462;6.692;2023-02-20T01:47:19;102301.44;;;7.87;71.63
9110;BME280;4590;51.462;6.692;2023-02-20T01:49:57;102305.56;;;7.89;70.92
9110;BME280;4590;51.462;6.692;2023-02-20T01:52:27;102299.59;;;7.92;71.02
9110;BME280;4590;51.462;6.692;2023-02-20T01:54:58;102295.78;;;7.93;71.37
9110;BME280;4590;51.462;6.692;2023-02-20T01:57:27;102289.22;;;7.94;71.41
9110;BME280;4590;51.462;6.692;2023-02-20T01:59:58;102282.41;;;7.97;71.03
9110;BME280;4590;51.462;6.692;2023-02-20T02:02:26;102283.25;;;7.97;71.24
9110;BME280;4590;51.462;6.692;2023-02-20T02:04:52;102290.13;;;8.00;71.31
9110;BME280;4590;51.462;6.692;2023-02-20T02:07:18;102283.81;;;7.99;71.34
9110;BME280;4590;51.462;6.692;2023-02-20T02:09:50;102278.84;;;7.96;70.49
9110;BME280;4590;51.462;6.692;2023-02-20T02:12:17;102278.59;;;7.98;71.10
9110;BME280;4590;51.462;6.692;2023-02-20T02:14:43;102261.56;;;7.96;70.97
9110;BME280;4590;51.462;6.692;2023-02-20T02:44:15;102217.84;;;7.67;71.33
9110;BME280;4590;51.462;6.692;2023-02-20T02:49:22;102211.94;;;7.75;71.35
9110;BME280;4590;51.462;6.692;2023-02-20T02:51:51;102214.31;;;7.72;71.35
9110;BME280;4590;51.462;6.692;2023-02-20T02:54:24;102225.56;;;7.70;71.07
9110;BME280;4590;51.462;6.692;2023-02-20T02:57:16;102212.38;;;7.67;71.50
9110;BME280;4590;51.462;6.692;2023-02-20T02:59:43;102221.72;;;7.71;71.58
9110;BME280;4590;51.462;6.692;2023-02-20T03:02:13;102206.38;;;7.70;71.27
9110;BME280;4590;51.462;6.692;2023-02-20T03:04:41;102205.28;;;7.71;71.49
9110;BME280;4590;51.462;6.692;2023-02-20T03:07:12;102200.06;;;7.70;71.38
9110;BME280;4590;51.462;6.692;2023-02-20T03:10:00;102188.44;;;7.63;71.52
9110;BME280;4590;51.462;6.692;2023-02-20T03:12:28;102185.56;;;7.69;71.16
9110;BME280;4590;51.462;6.692;2023-02-20T03:14:56;102182.56;;;7.71;71.84
9110;BME280;4590;51.462;6.692;2023-02-20T03:17:47;102179.25;;;7.69;71.54
9110;BME280;4590;51.462;6.692;2023-02-20T03:20:16;102163.88;;;7.68;71.45
9110;BME280;4590;51.462;6.692;2023-02-20T03:22:47;102174.59;;;7.69;71.58
9110;BME280;4590;51.462;6.692;2023-02-20T03:25:22;102197.84;;;7.67;71.58
9110;BME280;4590;51.462;6.692;2023-02-20T03:27:54;102178.72;;;7.72;71.39
9110;BME280;4590;51.462;6.692;2023-02-20T03:30:27;102157.63;;;7.72;71.49
9110;BME280;4590;51.462;6.692;2023-02-20T03:33:03;102171.03;;;7.69;71.43
9110;BME280;4590;51.462;6.692;2023-02-20T03:35:49;102164.47;;;7.70;71.43
9110;BME280;4590;51.462;6.692;2023-02-20T03:38:36;102167.19;;;7.70;71.70
9110;BME280;4590;51.462;6.692;2023-02-20T03:41:22;102171.03;;;7.69;72.06
9110;BME280;4590;51.462;6.692;2023-02-20T03:44:09;102166.88;;;7.66;71.42
9110;BME280;4590;51.462;6.692;2023-02-20T03:46:36;102160.06;;;7.69;71.46
9110;BME280;4590;51.462;6.692;2023-02-20T03:49:10;102166.63;;;7.68;71.71
9110;BME280;4590;51.462;6.692;2023-02-20T03:51:36;102168.03;;;7.70;71.34
9110;BME280;4590;51.462;6.692;2023-02-20T03:54:02;102174.84;;;7.68;71.38
9110;BME280;4590;51.462;6.692;2023-02-20T03:56:32;102174.84;;;7.68;71.49
9110;BME280;4590;51.462;6.692;2023-02-20T03:59:07;102179.50;;;7.67;71.81
9110;BME280;4590;51.462;6.692;2023-02-20T04:01:36;102174.59;;;7.69;71.33
9110;BME280;4590;51.462;6.692;2023-02-20T04:04:04;102180.91;;;7.70;71.44
9110;BME280;4590;51.462;6.692;2023-02-20T04:06:32;102176.75;;;7.67;71.67
9110;BME280;4590;51.462;6.692;2023-02-20T04:09:04;102172.59;;;7.65;71.39
9110;BME280;4590;51.462;6.692;2023-02-20T04:11:35;102169.59;;;7.66;71.36
9110;BME280;4590;51.462;6.692;2023-02-20T04:14:02;102166.88;;;7.66;71.71
9110;BME280;4590;51.462;6.692;2023-02-20T04:16:33;102167.63;;;7.62;71.85
9110;BME280;4590;51.462;6.692;2023-02-20T04:19:00;102168.44;;;7.62;71.34
9110;BME280;4590;51.462;6.692;2023-02-20T04:21:39;102167.28;;;7.58;71.19
9110;BME280;4590;51.462;6.692;2023-02-20T04:24:09;102164.28;;;7.60;71.39
9110;BME280;4590;51.462;6.692;2023-02-20T04:26:35;102162.63;;;7.59;71.27
9110;BME280;4590;51.462;6.692;2023-02-20T04:29:03;102163.72;;;7.58;71.64
9110;BME280;4590;51.462;6.692;2023-02-20T04:31:28;102159.91;;;7.59;71.25
9110;BME280;4590;51.462;6.692;2023-02-20T04:33:54;102168.38;;;7.57;71.11
9110;BME280;4590;51.462;6.692;2023-02-20T04:36:20;102170.28;;;7.57;71.87
9110;BME280;4590;51.462;6.692;2023-02-20T04:38:45;102165.88;;;7.56;71.40
9110;BME280;4590;51.462;6.692;2023-02-20T04:41:10;102162.59;;;7.54;71.65
9110;BME280;4590;51.462;6.692;2023-02-20T04:43:36;102180.59;;;7.50;71.32
9110;BME280;4590;51.462;6.692;2023-02-20T04:46:01;102163.56;;;7.48;71.38
9110;BME280;4590;51.462;6.692;2023-02-20T04:48:26;102171.22;;;7.46;71.43
9110;BME280;4590;51.462;6.692;2023-02-20T04:50:51;102164.91;;;7.45;71.77
9110;BME280;4590;51.462;6.692;2023-02-20T04:53:17;102168.47;;;7.46;71.49
9110;BME280;4590;51.462;6.692;2023-02-20T04:55:43;102178.84;;;7.44;71.53
9110;BME280;4590;51.462;6.692;2023-02-20T04:58:08;102166.22;;;7.43;71.40
9110;BME280;4590;51.462;6.692;2023-02-20T05:00:33;102165.66;;;7.40;71.65
9110;BME280;4590;51.462;6.692;2023-02-20T05:02:58;102150.88;;;7.42;71.69
9110;BME280;4590;51.462;6.692;2023-02-20T05:05:28;102147.84;;;7.38;71.72
9110;BME280;4590;51.462;6.692;2023-02-20T05:07:59;102171.13;;;7.40;71.55
9110;BME280;4590;51.462;6.692;2023-02-20T05:10:27;102154.44;;;7.42;71.63
9110;BME280;4590;51.462;6.692;2023-02-20T05:12:52;102158.00;;;7.43;71.76
9110;BME280;4590;51.462;6.692;2023-02-20T05:15:19;102146.22;;;7.42;71.89
9110;BME280;4590;51.462;6.692;2023-02-20T05:17:45;102141.59;;;7.43;71.98
9110;BME280;4590;51.462;6.692;2023-02-20T05:20:11;102147.06;;;7.43;72.24
9110;BME280;4590;51.462;6.692;2023-02-20T05:22:37;102135.81;;;7.39;72.27
9110;BME280;4590;51.462;6.692;2023-02-20T05:25:02;102134.97;;;7.38;72.09
9110;BME280;4590;51.462;6.692;2023-02-20T05:27:28;102139.09;;;7.41;72.31
9110;BME280;4590;51.462;6.692;2023-02-20T05:29:55;102136.94;;;7.43;71.93
9110;BME280;4590;51.462;6.692;2023-02-20T05:32:23;102137.75;;;7.44;72.07
9110;BME280;4590;51.462;6.692;2023-02-20T05:34:49;102138.59;;;7.44;72.02
9110;BME280;4590;51.462;6.692;2023-02-20T05:37:16;102143.25;;;7.44;71.85
9110;BME280;4590;51.462;6.692;2023-02-20T05:39:41;102135.13;;;7.32;73.06
9110;BME280;4590;51.462;6.692;2023-02-20T05:42:07;102143.75;;;7.40;72.62
9110;BME280;4590;51.462;6.692;2023-02-20T05:44:33;102141.00;;;7.40;72.21
9110;BME280;4590;51.462;6.692;2023-02-20T05:46:59;102138.25;;;7.40;72.57
9110;BME280;4590;51.462;6.692;2023-02-20T05:49:24;102127.88;;;7.43;72.58
9110;BME280;4590;51.462;6.692;2023-02-20T05:51:50;102127.38;;;7.46;72.39
9110;BME280;4590;51.462;6.692;2023-02-20T05:54:16;102132.28;;;7.44;72.77
9110;BME280;4590;51.462;6.692;2023-02-20T05:56:43;102135.59;;;7.46;72.74
9110;BME280;4590;51.462;6.692;2023-02-20T05:59:09;102131.53;;;7.48;72.40
9110;BME280;4590;51.462;6.692;2023-02-20T06:01:34;102152.03;;;7.46;72.64
9110;BME280;4590;51.462;6.692;2023-02-20T06:04:00;102137.28;;;7.47;72.33
9110;BME280;4590;51.462;6.692;2023-02-20T06:06:40;102133.38;;;7.43;72.55
9110;BME280;4590;51.462;6.692;2023-02-20T06:09:07;102132.63;;;7.47;72.80
9110;BME280;4590;51.462;6.692;2023-02-20T06:11:35;102143.06;;;7.50;72.23
9110;BME280;4590;51.462;6.692;2023-02-20T06:14:01;102133.69;;;7.46;72.82
9110;BME280;4590;51.462;6.692;2023-02-20T06:16:28;102140.59;;;7.49;72.57
9110;BME280;4590;51.462;6.692;2023-02-20T06:18:54;102143.06;;;7.50;73.12
9110;BME280;4590;51.462;6.692;2023-02-20T06:21:21;102152.13;;;7.51;72.66
9110;BME280;4590;51.462;6.692;2023-02-20T06:23:48;102149.72;;;7.54;72.29
9110;BME280;4590;51.462;6.692;2023-02-20T06:26:15;102165.06;;;7.55;72.76
9110;BME280;4590;51.462;6.692;2023-02-20T06:28:41;102169.44;;;7.56;72.74
9110;BME280;4590;51.462;6.692;2023-02-20T06:31:06;102162.06;;;7.57;72.51
9110;BME280;4590;51.462;6.692;2023-02-20T06:33:32;102167.81;;;7.55;72.42
9110;BME280;4590;51.462;6.692;2023-02-20T06:35:58;102160.41;;;7.56;72.84
9110;BME280;4590;51.462;6.692;2023-02-20T06:38:24;102162.06;;;7.57;72.88
9110;BME280;4590;51.462;6.692;2023-02-20T06:40:49;102171.94;;;7.58;72.60
9110;BME280;4590;51.462;6.692;2023-02-20T06:43:15;102166.97;;;7.55;72.50
9110;BME280;4590;51.462;6.692;2023-02-20T06:45:40;102168.88;;;7.54;72.78
9110;BME280;4590;51.462;6.692;2023-02-20T06:48:05;102173.78;;;7.52;72.82
9110;BME280;4590;51.462;6.692;2023-02-20T06:50:31;102168.13;;;7.59;72.57
9110;BME280;4590;51.462;6.692;2023-02-20T06:52:56;102171.94;;;7.58;72.53
9110;BME280;4590;51.462;6.692;2023-02-20T06:55:21;102170.84;;;7.59;72.27
9110;BME280;4590;51.462;6.692;2023-02-20T06:57:47;102169.19;;;7.58;72.65
9110;BME280;4590;51.462;6.692;2023-02-20T07:00:14;102162.13;;;7.62;72.91
9110;BME280;4590;51.462;6.692;2023-02-20T07:02:40;102161.31;;;7.61;72.85
9110;BME280;4590;51.462;6.692;2023-02-20T07:05:06;102157.25;;;7.64;72.36
9110;BME280;4590;51.462;6.692;2023-02-20T07:07:33;102161.88;;;7.63;72.72
9110;BME280;4590;51.462;6.692;2023-02-20T07:09:58;102155.09;;;7.66;72.60
9110;BME280;4590;51.462;6.692;2023-02-20T07:12:28;102155.91;;;7.66;72.60
9110;BME280;4590;51.462;6.692;2023-02-20T07:14:53;102154.25;;;7.65;72.70
9110;BME280;4590;51.462;6.692;2023-02-20T07:17:19;102153.75;;;7.68;72.56
9110;BME280;4590;51.462;6.692;2023-02-20T07:19:44;102161.16;;;7.68;72.63
9110;BME280;4590;51.462;6.692;2023-02-20T07:22:09;102170.69;;;7.65;73.15
9110;BME280;4590;51.462;6.692;2023-02-20T07:24:34;102160.66;;;7.71;72.56
9110;BME280;4590;51.462;6.692;2023-02-20T07:27:00;102163.63;;;7.69;73.01
9110;BME280;4590;51.462;6.692;2023-02-20T07:29:26;102162.28;;;7.72;73.05
9110;BME280;4590;51.462;6.692;2023-02-20T07:31:52;102170.00;;;7.75;73.06
9110;BME280;4590;51.462;6.692;2023-02-20T07:34:17;102165.09;;;7.77;72.80
9110;BME280;4590;51.462;6.692;2023-02-20T07:36:42;102162.94;;;7.79;72.50
9110;BME280;4590;51.462;6.692;2023-02-20T07:39:07;102160.19;;;7.79;72.99
9110;BME280;4590;51.462;6.692;2023-02-20T07:41:34;102146.56;;;7.84;72.91
9110;BME280;4590;51.462;6.692;2023-02-20T07:44:00;102157.78;;;7.83;72.54
9110;BME280;4590;51.462;6.692;2023-02-20T07:46:26;102161.41;;;7.88;72.59
9110;BME280;4590;51.462;6.692;2023-02-20T07:48:51;102162.22;;;7.89;72.79
9110;BME280;4590;51.462;6.692;2023-02-20T07:51:17;102155.75;;;7.95;72.84
9110;BME280;4590;51.462;6.692;2023-02-20T07:53:49;102152.50;;;7.98;72.54
9110;BME280;4590;51.462;6.692;2023-02-20T07:56:15;102160.50;;;8.04;72.32
9110;BME280;4590;51.462;6.692;2023-02-20T07:58:40;102155.03;;;8.04;72.45
9110;BME280;4590;51.462;6.692;2023-02-20T08:01:05;102150.38;;;8.05;72.58
9110;BME280;4590;51.462;6.692;2023-02-20T08:03:31;102155.09;;;8.09;72.51
9110;BME280;4590;51.462;6.692;2023-02-20T08:05:56;102151.88;;;8.13;72.47
9110;BME280;4590;51.462;6.692;2023-02-20T08:08:21;102143.38;;;8.14;72.69
9110;BME280;4590;51.462;6.692;2023-02-20T08:10:49;102153.63;;;8.24;72.41
9110;BME280;4590;51.462;6.692;2023-02-20T08:13:14;102145.72;;;8.27;72.47
9110;BME280;4590;51.462;6.692;2023-02-20T08:15:39;102149.88;;;8.30;72.06
9110;BME280;4590;51.462;6.692;2023-02-20T08:18:06;102149.94;;;8.35;72.00
9110;BME280;4590;51.462;6.692;2023-02-20T08:20:31;102148.59;;;8.37;72.13
9110;BME280;4590;51.462;6.692;2023-02-20T08:22:56;102147.53;;;8.38;72.41
9110;BME280;4590;51.462;6.692;2023-02-20T08:25:25;102159.97;;;8.46;72.16
9110;BME280;4590;51.462;6.692;2023-02-20T08:27:50;102160.22;;;8.44;72.31
9110;BME280;4590;51.462;6.692;2023-02-20T08:30:24;102144.34;;;8.47;71.70
9110;BME280;4590;51.462;6.692;2023-02-20T08:32:50;102141.88;;;8.50;71.93
9110;BME280;4590;51.462;6.692;2023-02-20T08:35:16;102142.78;;;8.56;71.97
9110;BME280;4590;51.462;6.692;2023-02-20T08:37:42;102137.34;;;8.61;72.01
9110;BME280;4590;51.462;6.692;2023-02-20T08:40:08;102140.91;;;8.61;71.97
9110;BME280;4590;51.462;6.692;2023-02-20T08:42:33;102134.84;;;8.59;71.87
9110;BME280;4590;51.462;6.692;2023-02-20T08:45:00;102132.44;;;8.63;71.76
9110;BME280;4590;51.462;6.692;2023-02-20T08:47:25;102137.38;;;8.66;71.61
9110;BME280;4590;51.462;6.692;2023-02-20T08:49:50;102133.84;;;8.65;71.46
9110;BME280;4590;51.462;6.692;2023-02-20T08:52:16;102134.13;;;8.69;71.35
9110;BME280;4590;51.462;6.692;2023-02-20T08:54:45;102140.44;;;8.69;71.20
9110;BME280;4590;51.462;6.692;2023-02-20T08:57:12;102141.25;;;8.70;71.48
9110;BME280;4590;51.462;6.692;2023-02-20T08:59:37;102137.75;;;8.74;71.34
9110;BME280;4590;51.462;6.692;2023-02-20T09:02:03;102146.56;;;8.76;71.15
9110;BME280;4590;51.462;6.692;2023-02-20T09:04:29;102150.44;;;8.81;71.04
9110;BME280;4590;51.462;6.692;2023-02-20T09:06:54;102151.56;;;8.85;71.08
9110;BME280;4590;51.462;6.692;2023-02-20T09:09:19;102160.34;;;8.87;71.24
9110;BME280;4590;51.462;6.692;2023-02-20T09:11:45;102157.94;;;8.90;71.28
9110;BME280;4590;51.462;6.692;2023-02-20T09:14:10;102164.50;;;8.89;71.46
9110;BME280;4590;51.462;6.692;2023-02-20T09:16:35;102153.53;;;8.89;71.09
9110;BME280;4590;51.462;6.692;2023-02-20T09:19:00;102158.25;;;8.94;70.92
9110;BME280;4590;51.462;6.692;2023-02-20T09:21:26;102153.03;;;8.97;70.71
9110;BME280;4590;51.462;6.692;2023-02-20T09:23:53;102153.34;;;9.01;70.73
9110;BME280;4590;51.462;6.692;2023-02-20T09:26:18;102151.16;;;9.03;70.59
9110;BME280;4590;51.462;6.692;2023-02-20T09:28:43;102144.34;;;9.05;70.71
9110;BME280;4590;51.462;6.692;2023-02-20T09:31:09;102139.66;;;9.06;70.64
9110;BME280;4590;51.462;6.692;2023-02-20T09:33:35;102150.13;;;9.09;70.70
9110;BME280;4590;51.462;6.692;2023-02-20T09:36:00;102151.22;;;9.08;70.88
9110;BME280;4590;51.462;6.692;2023-02-20T09:38:25;102158.41;;;9.14;70.66
9110;BME280;4590;51.462;6.692;2023-02-20T09:40:55;102144.16;;;9.17;70.69
9110;BME280;4590;51.462;6.692;2023-02-20T09:46:18;102146.38;;;9.20;70.31
9110;BME280;4590;51.462;6.692;2023-02-20T09:49:11;102152.69;;;9.21;70.06
9110;BME280;4590;51.462;6.692;2023-02-20T09:51:44;102148.34;;;9.25;70.12
9110;BME280;4590;51.462;6.692;2023-02-20T09:54:18;102151.34;;;9.23;70.20
9110;BME280;4590;51.462;6.692;2023-02-20T09:56:51;102156.84;;;9.23;70.20
9110;BME280;4590;51.462;6.692;2023-02-20T09:59:21;102145.34;;;9.26;70.22
9110;BME280;4590;51.462;6.692;2023-02-20T10:02:00;102149.69;;;9.22;69.77
9110;BME280;4590;51.462;6.692;2023-02-20T10:04:33;102152.75;;;9.26;69.89
9110;BME280;4590;51.462;6.692;2023-02-20T10:07:15;102148.09;;;9.31;69.73
9110;BME280;4590;51.462;6.692;2023-02-20T10:09:45;102148.94;;;9.32;69.96
9110;BME280;4590;51.462;6.692;2023-02-20T10:15:06;102149.78;;;9.37;69.75
9110;BME280;4590;51.462;6.692;2023-02-20T10:17:43;102143.22;;;9.38;69.84
9110;BME280;4590;51.462;6.692;2023-02-20T10:25:49;102121.56;;;9.47;69.98
9110;BME280;4590;51.462;6.692;2023-02-20T10:28:17;102110.59;;;9.52;69.97
9110;BME280;4590;51.462;6.692;2023-02-20T10:30:46;102111.44;;;9.53;69.74
9110;BME280;4590;51.462;6.692;2023-02-20T10:33:23;102103.72;;;9.49;69.37
9110;BME280;4590;51.462;6.692;2023-02-20T10:36:13;102101.78;;;9.50;68.95
9110;BME280;4590;51.462;6.692;2023-02-20T10:38:48;102109.28;;;9.60;69.47
9110;BME280;4590;51.462;6.692;2023-02-20T10:42:04;102107.38;;;9.65;69.59
9110;BME280;4590;51.462;6.692;2023-02-20T10:50:03;102096.41;;;9.70;69.13
9110;BME280;4590;51.462;6.692;2023-02-20T10:52:36;102098.63;;;9.78;69.62
9110;BME280;4590;51.462;6.692;2023-02-20T10:55:17;102093.13;;;9.78;68.98
9110;BME280;4590;51.462;6.692;2023-02-20T11:00:16;102089.09;;;9.91;69.16
9110;BME280;4590;51.462;6.692;2023-02-20T11:02:50;102095.41;;;9.97;69.12
9110;BME280;4590;51.462;6.692;2023-02-20T11:05:21;102087.16;;;9.97;68.67
9110;BME280;4590;51.462;6.692;2023-02-20T11:07:49;102102.03;;;10.01;68.79
9110;BME280;4590;51.462;6.692;2023-02-20T11:10:15;102088.59;;;10.04;68.93
9110;BME280;4590;51.462;6.692;2023-02-20T11:12:52;102090.78;;;10.02;68.27
9110;BME280;4590;51.462;6.692;2023-02-20T11:15:22;102089.97;;;10.07;68.78
9110;BME280;4590;51.462;6.692;2023-02-20T11:17:52;102079.78;;;10.02;68.77
9110;BME280;4590;51.462;6.692;2023-02-20T11:22:56;102073.47;;;10.07;68.88
9110;BME280;4590;51.462;6.692;2023-02-20T11:25:35;102080.03;;;10.01;68.60
9110;BME280;4590;51.462;6.692;2023-02-20T11:28:16;102088.25;;;9.96;67.82
9110;BME280;4590;51.462;6.692;2023-02-20T11:30:45;102085.28;;;10.07;68.63
9110;BME280;4590;51.462;6.692;2023-02-20T11:33:18;102080.91;;;10.06;68.25
9110;BME280;4590;51.462;6.692;2023-02-20T11:35:48;102073.75;;;10.05;68.61
9110;BME280;4590;51.462;6.692;2023-02-20T11:40:44;102085.03;;;10.14;68.42
9110;BME280;4590;51.462;6.692;2023-02-20T11:43:27;102085.84;;;10.09;68.51
9110;BME280;4590;51.462;6.692;2023-02-20T11:46:18;102095.19;;;10.03;68.68
9110;BME280;4590;51.462;6.692;2023-02-20T11:49:21;102091.59;;;10.08;68.05
9110;BME280;4590;51.462;6.692;2023-02-20T11:51:48;102105.16;;;10.19;68.75
9110;BME280;4590;51.462;6.692;2023-02-20T11:54:25;102095.00;;;10.20;68.01
9110;BME280;4590;51.462;6.692;2023-02-20T11:57:01;102104.09;;;10.31;69.26
9110;BME280;4590;51.462;6.692;2023-02-20T12:04:43;102087.09;;;10.64;69.27
9110;BME280;4590;51.462;6.692;2023-02-20T12:07:25;102090.66;;;10.65;68.63
9110;BME280;4590;51.462;6.692;2023-02-20T12:09:55;102095.34;;;10.74;68.35
9110;BME280;4590;51.462;6.692;2023-02-20T12:12:21;102080.22;;;10.77;68.62
9110;BME280;4590;51.462;6.692;2023-02-20T12:14:50;102069.44;;;10.55;65.84
9110;BME280;4590;51.462;6.692;2023-02-20T12:17:26;102074.94;;;10.55;67.50
9110;BME280;4590;51.462;6.692;2023-02-20T12:20:02;102090.94;;;10.53;67.95
9110;BME280;4590;51.462;6.692;2023-02-20T12:22:38;102085.13;;;10.44;67.69
9110;BME280;4590;51.462;6.692;2023-02-20T12:28:57;102068.31;;;10.26;67.52
9110;BME280;4590;51.462;6.692;2023-02-20T12:31:37;102070.22;;;10.25;67.85
9110;BME280;4590;51.462;6.692;2023-02-20T12:36:50;102052.34;;;10.28;68.52
9110;BME280;4590;51.462;6.692;2023-02-20T12:39:56;102040.25;;;10.18;67.82
9110;BME280;4590;51.462;6.692;2023-02-20T12:45:21;102020.72;;;10.25;68.48
9110;BME280;4590;51.462;6.692;2023-02-20T12:47:55;102019.88;;;10.25;68.62
9110;BME280;4590;51.462;6.692;2023-02-20T12:50:37;102016.31;;;10.24;68.43
9110;BME280;4590;51.462;6.692;2023-02-20T12:53:40;102013.03;;;10.22;68.19
9110;BME280;4590;51.462;6.692;2023-02-20T12:56:21;102023.22;;;10.22;68.39
9110;BME280;4590;51.462;6.692;2023-02-20T13:01:22;101998.16;;;10.28;68.92
9110;BME280;4590;51.462;6.692;2023-02-20T13:06:46;101964.88;;;10.25;68.61
9110;BME280;4590;51.462;6.692;2023-02-20T13:09:20;101962.38;;;10.23;68.48
9110;BME280;4590;51.462;6.692;2023-02-20T13:11:50;101958.03;;;10.22;68.59
9110;BME280;4590;51.462;6.692;2023-02-20T13:14:28;101964.03;;;10.24;68.68
9110;BME280;4590;51.462;6.692;2023-02-20T13:17:23;101954.41;;;10.16;68.71
9110;BME280;4590;51.462;6.692;2023-02-20T13:25:48;101965.97;;;10.24;69.04
9110;BME280;4590;51.462;6.692;2023-02-20T13:28:34;101966.50;;;10.15;68.88
9110;BME280;4590;51.462;6.692;2023-02-20T13:31:11;101961.59;;;10.23;68.96
9110;BME280;4590;51.462;6.692;2023-02-20T13:33:39;101962.69;;;10.27;68.63
9110;BME280;4590;51.462;6.692;2023-02-20T13:36:15;101972.03;;;10.26;68.89
9110;BME280;4590;51.462;6.692;2023-02-20T13:38:41;101994.59;;;10.33;69.08
9110;BME280;4590;51.462;6.692;2023-02-20T13:41:08;101983.06;;;10.36;69.03
9110;BME280;4590;51.462;6.692;2023-02-20T13:43:35;101978.09;;;10.38;68.75
9110;BME280;4590;51.462;6.692;2023-02-20T13:53:50;101979.75;;;10.34;68.71
9110;BME280;4590;51.462;6.692;2023-02-20T13:56:22;101963.50;;;10.32;68.74
9110;BME280;4590;51.462;6.692;2023-02-20T13:58:50;101945.38;;;10.36;68.98
9110;BME280;4590;51.462;6.692;2023-02-20T14:01:15;101948.94;;;10.37;68.78
9110;BME280;4590;51.462;6.692;2023-02-20T14:03:41;101968.47;;;10.35;68.60
9110;BME280;4590;51.462;6.692;2023-02-20T14:06:12;101972.31;;;10.34;68.79
9110;BME280;4590;51.462;6.692;2023-02-20T14:08:40;101967.09;;;10.33;69.05
9110;BME280;4590;51.462;6.692;2023-02-20T14:11:08;101951.13;;;10.30;69.32
9110;BME280;4590;51.462;6.692;2023-02-20T14:13:35;101958.00;;;10.32;68.96
9110;BME280;4590;51.462;6.692;2023-02-20T14:16:01;101960.22;;;10.30;69.00
9110;BME280;4590;51.462;6.692;2023-02-20T14:18:29;101957.19;;;10.32;69.20
9110;BME280;4590;51.462;6.692;2023-02-20T14:21:08;101943.41;;;10.27;68.74
9110;BME280;4590;51.462;6.692;2023-02-20T14:23:34;101934.91;;;10.28;68.81
9110;BME280;4590;51.462;6.692;2023-02-20T14:26:02;101944.81;;;10.29;69.18
9110;BME280;4590;51.462;6.692;2023-02-20T14:28:32;101945.63;;;10.30;68.92
9110;BME280;4590;51.462;6.692;2023-02-20T14:31:33;101938.75;;;10.27;68.83
9110;BME280;4590;51.462;6.692;2023-02-20T14:34:01;101938.47;;;10.34;69.13
9110;BME280;4590;51.462;6.692;2023-02-20T14:42:02;101936.00;;;10.37;68.98
9110;BME280;4590;51.462;6.692;2023-02-20T14:44:30;101927.50;;;10.39;69.23
9110;BME280;4590;51.462;6.692;2023-02-20T14:47:15;101930.78;;;10.31;69.24
9110;BME280;4590;51.462;6.692;2023-02-20T14:49:40;101934.34;;;10.36;69.63
9110;BME280;4590;51.462;6.692;2023-02-20T14:54:35;101926.66;;;10.38;69.60
9110;BME280;4590;51.462;6.692;2023-02-20T14:57:02;101920.34;;;10.38;69.48
9110;BME280;4590;51.462;6.692;2023-02-20T14:59:35;101919.22;;;10.39;69.42
9110;BME280;4590;51.462;6.692;2023-02-20T15:02:14;101912.91;;;10.33;69.61
9110;BME280;4590;51.462;6.692;2023-02-20T15:04:54;101928.59;;;10.38;69.26
9110;BME280;4590;51.462;6.692;2023-02-20T15:07:25;101911.50;;;10.46;69.28